sensor_id;sensor_type;location;lat;lon;timestamp;P1;durP1;ratioP1;P2;durP2;ratioP2
58091;SDS011;43896;48.178;11.578;2023-05-19T00:00:59;10.43;;;4.03;;
58091;SDS011;43896;48.178;11.578;2023-05-19T00:03:24;10.35;;;4.20;;
58091;SDS011;43896;48.178;11.578;2023-05-19T00:05:52;9.30;;;3.75;;
58091;SDS011;43896;48.178;11.578;2023-05-19T00:08:18;9.10;;;3.67;;
58091;SDS011;43896;48.178;11.578;2023-05-19T00:10:44;10.23;;;4.18;;
58091;SDS011;43896;48.178;11.578;2023-05-19T00:13:10;8.77;;;3.85;;
58091;SDS011;43896;48.178;11.578;2023-05-19T00:15:36;11.85;;;4.07;;
58091;SDS011;43896;48.178;11.578;2023-05-19T00:18:01;8.32;;;4.10;;
58091;SDS011;43896;48.178;11.578;2023-05-19T00:20:27;9.95;;;3.95;;
58091;SDS011;43896;48.178;11.578;2023-05-19T00:22:52;10.73;;;3.97;;
58091;SDS011;43896;48.178;11.578;2023-05-19T00:25:18;11.18;;;4.32;;
58091;SDS011;43896;48.178;11.578;2023-05-19T00:27:43;12.10;;;4.03;;
58091;SDS011;43896;48.178;11.578;2023-05-19T00:30:08;10.15;;;3.70;;
58091;SDS011;43896;48.178;11.578;2023-05-19T00:32:34;9.10;;;3.83;;
58091;SDS011;43896;48.178;11.578;2023-05-19T00:34:59;9.25;;;4.00;;
58091;SDS011;43896;48.178;11.578;2023-05-19T00:37:25;9.60;;;4.47;;
58091;SDS011;43896;48.178;11.578;2023-05-19T00:39:50;8.70;;;3.58;;
58091;SDS011;43896;48.178;11.578;2023-05-19T00:42:16;10.88;;;3.80;;
58091;SDS011;43896;48.178;11.578;2023-05-19T00:44:41;10.07;;;3.88;;
58091;SDS011;43896;48.178;11.578;2023-05-19T00:47:07;9.23;;;3.90;;
58091;SDS011;43896;48.178;11.578;2023-05-19T00:49:32;9.23;;;4.40;;
58091;SDS011;43896;48.178;11.578;2023-05-19T00:51:59;11.05;;;4.22;;
58091;SDS011;43896;48.178;11.578;2023-05-19T00:54:26;8.65;;;3.65;;
58091;SDS011;43896;48.178;11.578;2023-05-19T00:56:53;8.25;;;3.83;;
58091;SDS011;43896;48.178;11.578;2023-05-19T00:59:19;10.55;;;4.15;;
58091;SDS011;43896;48.178;11.578;2023-05-19T01:01:44;11.32;;;4.05;;
58091;SDS011;43896;48.178;11.578;2023-05-19T01:04:13;7.95;;;3.58;;
58091;SDS011;43896;48.178;11.578;2023-05-19T01:06:40;8.43;;;3.78;;
58091;SDS011;43896;48.178;11.578;2023-05-19T01:09:06;10.00;;;3.67;;
58091;SDS011;43896;48.178;11.578;2023-05-19T01:11:33;11.00;;;3.97;;
58091;SDS011;43896;48.178;11.578;2023-05-19T01:13:58;7.97;;;3.80;;
58091;SDS011;43896;48.178;11.578;2023-05-19T01:16:25;7.82;;;3.65;;
58091;SDS011;43896;48.178;11.578;2023-05-19T01:22:11;8.02;;;4.43;;
58091;SDS011;43896;48.178;11.578;2023-05-19T01:30:36;9.07;;;3.95;;
58091;SDS011;43896;48.178;11.578;2023-05-19T01:33:05;8.02;;;3.90;;
58091;SDS011;43896;48.178;11.578;2023-05-19T01:35:34;7.38;;;4.32;;
58091;SDS011;43896;48.178;11.578;2023-05-19T01:38:02;10.23;;;4.00;;
58091;SDS011;43896;48.178;11.578;2023-05-19T01:40:28;10.63;;;4.43;;
58091;SDS011;43896;48.178;11.578;2023-05-19T01:42:55;9.63;;;3.92;;
58091;SDS011;43896;48.178;11.578;2023-05-19T01:45:23;10.05;;;3.90;;
58091;SDS011;43896;48.178;11.578;2023-05-19T01:47:51;9.45;;;4.60;;
58091;SDS011;43896;48.178;11.578;2023-05-19T01:50:18;11.05;;;4.18;;
58091;SDS011;43896;48.178;11.578;2023-05-19T01:52:44;7.57;;;3.78;;
58091;SDS011;43896;48.178;11.578;2023-05-19T01:55:09;7.80;;;4.40;;
58091;SDS011;43896;48.178;11.578;2023-05-19T02:03:13;11.10;;;4.47;;
58091;SDS011;43896;48.178;11.578;2023-05-19T02:08:43;8.40;;;3.80;;
58091;SDS011;43896;48.178;11.578;2023-05-19T02:14:10;8.60;;;4.40;;
58091;SDS011;43896;48.178;11.578;2023-05-19T02:16:45;8.93;;;3.60;;
58091;SDS011;43896;48.178;11.578;2023-05-19T02:19:19;9.90;;;4.55;;
58091;SDS011;43896;48.178;11.578;2023-05-19T02:21:45;9.25;;;4.20;;
58091;SDS011;43896;48.178;11.578;2023-05-19T02:24:11;8.10;;;4.20;;
58091;SDS011;43896;48.178;11.578;2023-05-19T02:26:36;11.88;;;4.10;;
58091;SDS011;43896;48.178;11.578;2023-05-19T02:29:02;9.13;;;4.40;;
58091;SDS011;43896;48.178;11.578;2023-05-19T02:31:27;7.55;;;4.00;;
58091;SDS011;43896;48.178;11.578;2023-05-19T02:33:52;10.38;;;4.03;;
58091;SDS011;43896;48.178;11.578;2023-05-19T02:36:18;12.13;;;4.38;;
58091;SDS011;43896;48.178;11.578;2023-05-19T02:38:43;9.45;;;4.57;;
58091;SDS011;43896;48.178;11.578;2023-05-19T02:41:08;9.50;;;4.32;;
58091;SDS011;43896;48.178;11.578;2023-05-19T02:43:34;11.27;;;4.95;;
58091;SDS011;43896;48.178;11.578;2023-05-19T02:46:00;8.77;;;4.10;;
58091;SDS011;43896;48.178;11.578;2023-05-19T02:48:25;10.57;;;4.20;;
58091;SDS011;43896;48.178;11.578;2023-05-19T02:50:50;6.47;;;3.63;;
58091;SDS011;43896;48.178;11.578;2023-05-19T02:53:16;10.27;;;4.90;;
58091;SDS011;43896;48.178;11.578;2023-05-19T02:55:42;12.43;;;4.68;;
58091;SDS011;43896;48.178;11.578;2023-05-19T02:58:08;8.93;;;4.25;;
58091;SDS011;43896;48.178;11.578;2023-05-19T03:00:33;11.82;;;4.60;;
58091;SDS011;43896;48.178;11.578;2023-05-19T03:02:59;10.38;;;4.72;;
58091;SDS011;43896;48.178;11.578;2023-05-19T03:05:26;8.07;;;4.15;;
58091;SDS011;43896;48.178;11.578;2023-05-19T03:07:53;9.93;;;4.20;;
58091;SDS011;43896;48.178;11.578;2023-05-19T03:10:19;7.82;;;4.20;;
58091;SDS011;43896;48.178;11.578;2023-05-19T03:12:44;9.13;;;4.20;;
58091;SDS011;43896;48.178;11.578;2023-05-19T03:15:09;9.43;;;4.47;;
58091;SDS011;43896;48.178;11.578;2023-05-19T03:17:37;10.57;;;4.50;;
58091;SDS011;43896;48.178;11.578;2023-05-19T03:20:03;9.40;;;4.43;;
58091;SDS011;43896;48.178;11.578;2023-05-19T03:22:29;10.48;;;4.47;;
58091;SDS011;43896;48.178;11.578;2023-05-19T03:24:54;9.45;;;4.03;;
58091;SDS011;43896;48.178;11.578;2023-05-19T03:27:22;10.77;;;4.63;;
58091;SDS011;43896;48.178;11.578;2023-05-19T03:29:48;12.07;;;4.60;;
58091;SDS011;43896;48.178;11.578;2023-05-19T03:32:13;10.65;;;4.60;;
58091;SDS011;43896;48.178;11.578;2023-05-19T03:34:38;8.18;;;4.28;;
58091;SDS011;43896;48.178;11.578;2023-05-19T03:37:04;10.35;;;4.93;;
58091;SDS011;43896;48.178;11.578;2023-05-19T03:39:29;9.93;;;4.72;;
58091;SDS011;43896;48.178;11.578;2023-05-19T03:41:55;9.70;;;4.50;;
58091;SDS011;43896;48.178;11.578;2023-05-19T03:44:20;9.77;;;4.55;;
58091;SDS011;43896;48.178;11.578;2023-05-19T03:46:45;10.48;;;4.07;;
58091;SDS011;43896;48.178;11.578;2023-05-19T03:49:11;7.93;;;4.10;;
58091;SDS011;43896;48.178;11.578;2023-05-19T03:51:37;8.02;;;4.28;;
58091;SDS011;43896;48.178;11.578;2023-05-19T03:54:03;9.68;;;4.50;;
58091;SDS011;43896;48.178;11.578;2023-05-19T03:56:28;8.38;;;4.38;;
58091;SDS011;43896;48.178;11.578;2023-05-19T03:58:54;7.05;;;4.38;;
58091;SDS011;43896;48.178;11.578;2023-05-19T04:01:20;11.20;;;4.53;;
58091;SDS011;43896;48.178;11.578;2023-05-19T04:03:45;10.50;;;4.50;;
58091;SDS011;43896;48.178;11.578;2023-05-19T04:06:11;10.15;;;4.78;;
58091;SDS011;43896;48.178;11.578;2023-05-19T04:08:37;10.43;;;4.57;;
58091;SDS011;43896;48.178;11.578;2023-05-19T04:11:03;9.70;;;4.60;;
58091;SDS011;43896;48.178;11.578;2023-05-19T04:13:31;10.68;;;4.60;;
58091;SDS011;43896;48.178;11.578;2023-05-19T04:15:57;9.05;;;4.43;;
58091;SDS011;43896;48.178;11.578;2023-05-19T04:18:23;11.27;;;4.75;;
58091;SDS011;43896;48.178;11.578;2023-05-19T04:20:48;10.00;;;4.88;;
58091;SDS011;43896;48.178;11.578;2023-05-19T04:23:13;11.02;;;5.00;;
58091;SDS011;43896;48.178;11.578;2023-05-19T04:25:39;7.57;;;4.35;;
58091;SDS011;43896;48.178;11.578;2023-05-19T04:28:05;10.98;;;4.85;;
58091;SDS011;43896;48.178;11.578;2023-05-19T04:30:31;10.57;;;5.07;;
58091;SDS011;43896;48.178;11.578;2023-05-19T04:32:58;10.15;;;4.80;;
58091;SDS011;43896;48.178;11.578;2023-05-19T04:38:02;9.90;;;4.57;;
58091;SDS011;43896;48.178;11.578;2023-05-19T04:40:27;8.73;;;4.63;;
58091;SDS011;43896;48.178;11.578;2023-05-19T04:42:54;7.93;;;4.63;;
58091;SDS011;43896;48.178;11.578;2023-05-19T04:45:21;9.93;;;4.57;;
58091;SDS011;43896;48.178;11.578;2023-05-19T04:47:47;11.48;;;4.47;;
58091;SDS011;43896;48.178;11.578;2023-05-19T04:50:12;9.20;;;4.70;;
58091;SDS011;43896;48.178;11.578;2023-05-19T04:52:38;9.30;;;4.93;;
58091;SDS011;43896;48.178;11.578;2023-05-19T04:55:05;9.48;;;4.88;;
58091;SDS011;43896;48.178;11.578;2023-05-19T04:57:31;9.88;;;5.05;;
58091;SDS011;43896;48.178;11.578;2023-05-19T04:59:56;11.35;;;4.97;;
58091;SDS011;43896;48.178;11.578;2023-05-19T05:02:26;9.10;;;4.72;;
58091;SDS011;43896;48.178;11.578;2023-05-19T05:04:52;10.13;;;4.30;;
58091;SDS011;43896;48.178;11.578;2023-05-19T05:07:18;9.13;;;4.50;;
58091;SDS011;43896;48.178;11.578;2023-05-19T05:09:49;11.30;;;4.55;;
58091;SDS011;43896;48.178;11.578;2023-05-19T05:12:16;9.32;;;4.60;;
58091;SDS011;43896;48.178;11.578;2023-05-19T05:14:44;10.60;;;5.00;;
58091;SDS011;43896;48.178;11.578;2023-05-19T05:17:10;8.80;;;4.72;;
58091;SDS011;43896;48.178;11.578;2023-05-19T05:19:40;10.35;;;4.85;;
58091;SDS011;43896;48.178;11.578;2023-05-19T05:22:05;9.15;;;4.70;;
58091;SDS011;43896;48.178;11.578;2023-05-19T05:24:31;12.38;;;5.65;;
58091;SDS011;43896;48.178;11.578;2023-05-19T05:26:57;11.27;;;4.90;;
58091;SDS011;43896;48.178;11.578;2023-05-19T05:29:23;12.43;;;5.18;;
58091;SDS011;43896;48.178;11.578;2023-05-19T05:31:48;10.40;;;5.18;;
58091;SDS011;43896;48.178;11.578;2023-05-19T05:34:14;8.80;;;5.00;;
58091;SDS011;43896;48.178;11.578;2023-05-19T05:36:39;8.35;;;4.68;;
58091;SDS011;43896;48.178;11.578;2023-05-19T05:39:05;9.32;;;5.22;;
58091;SDS011;43896;48.178;11.578;2023-05-19T05:41:30;10.68;;;5.30;;
58091;SDS011;43896;48.178;11.578;2023-05-19T05:44:01;9.15;;;5.25;;
58091;SDS011;43896;48.178;11.578;2023-05-19T05:46:27;11.25;;;5.28;;
58091;SDS011;43896;48.178;11.578;2023-05-19T05:48:53;9.13;;;4.97;;
58091;SDS011;43896;48.178;11.578;2023-05-19T05:51:21;12.63;;;6.00;;
58091;SDS011;43896;48.178;11.578;2023-05-19T05:53:50;11.32;;;4.75;;
58091;SDS011;43896;48.178;11.578;2023-05-19T05:56:18;10.85;;;4.93;;
58091;SDS011;43896;48.178;11.578;2023-05-19T05:58:44;9.95;;;5.45;;
58091;SDS011;43896;48.178;11.578;2023-05-19T06:01:10;11.55;;;5.43;;
58091;SDS011;43896;48.178;11.578;2023-05-19T06:03:39;13.57;;;5.63;;
58091;SDS011;43896;48.178;11.578;2023-05-19T06:06:08;11.55;;;5.80;;
58091;SDS011;43896;48.178;11.578;2023-05-19T06:08:34;10.43;;;6.10;;
58091;SDS011;43896;48.178;11.578;2023-05-19T06:10:59;12.25;;;5.78;;
58091;SDS011;43896;48.178;11.578;2023-05-19T06:13:25;9.90;;;5.40;;
58091;SDS011;43896;48.178;11.578;2023-05-19T06:15:50;8.45;;;5.05;;
58091;SDS011;43896;48.178;11.578;2023-05-19T06:18:16;10.75;;;5.15;;
58091;SDS011;43896;48.178;11.578;2023-05-19T06:20:41;13.10;;;6.10;;
58091;SDS011;43896;48.178;11.578;2023-05-19T06:23:07;10.20;;;5.35;;
58091;SDS011;43896;48.178;11.578;2023-05-19T06:25:32;11.93;;;5.97;;
58091;SDS011;43896;48.178;11.578;2023-05-19T06:27:57;11.90;;;6.20;;
58091;SDS011;43896;48.178;11.578;2023-05-19T06:30:23;10.18;;;5.13;;
58091;SDS011;43896;48.178;11.578;2023-05-19T06:32:48;12.95;;;6.00;;
58091;SDS011;43896;48.178;11.578;2023-05-19T06:35:13;9.82;;;5.70;;
58091;SDS011;43896;48.178;11.578;2023-05-19T06:37:39;13.38;;;6.10;;
58091;SDS011;43896;48.178;11.578;2023-05-19T06:40:04;10.30;;;5.25;;
58091;SDS011;43896;48.178;11.578;2023-05-19T06:42:31;10.52;;;5.18;;
58091;SDS011;43896;48.178;11.578;2023-05-19T06:44:56;13.00;;;5.95;;
58091;SDS011;43896;48.178;11.578;2023-05-19T06:47:21;10.50;;;5.13;;
58091;SDS011;43896;48.178;11.578;2023-05-19T06:49:47;8.30;;;5.25;;
58091;SDS011;43896;48.178;11.578;2023-05-19T06:52:19;11.43;;;5.88;;
58091;SDS011;43896;48.178;11.578;2023-05-19T06:54:50;9.88;;;5.00;;
58091;SDS011;43896;48.178;11.578;2023-05-19T06:57:19;10.60;;;5.07;;
58091;SDS011;43896;48.178;11.578;2023-05-19T06:59:45;11.35;;;4.85;;
58091;SDS011;43896;48.178;11.578;2023-05-19T07:02:10;9.10;;;5.35;;
58091;SDS011;43896;48.178;11.578;2023-05-19T07:04:38;8.32;;;5.00;;
58091;SDS011;43896;48.178;11.578;2023-05-19T07:07:09;10.20;;;4.70;;
58091;SDS011;43896;48.178;11.578;2023-05-19T07:09:35;11.60;;;5.22;;
58091;SDS011;43896;48.178;11.578;2023-05-19T07:12:00;9.68;;;4.95;;
58091;SDS011;43896;48.178;11.578;2023-05-19T07:14:26;11.93;;;4.93;;
58091;SDS011;43896;48.178;11.578;2023-05-19T07:16:51;10.77;;;5.90;;
58091;SDS011;43896;48.178;11.578;2023-05-19T07:19:17;10.63;;;5.57;;
58091;SDS011;43896;48.178;11.578;2023-05-19T07:21:46;9.10;;;5.20;;
58091;SDS011;43896;48.178;11.578;2023-05-19T07:24:11;8.80;;;5.60;;
58091;SDS011;43896;48.178;11.578;2023-05-19T07:26:37;10.60;;;5.70;;
58091;SDS011;43896;48.178;11.578;2023-05-19T07:29:03;10.25;;;5.47;;
58091;SDS011;43896;48.178;11.578;2023-05-19T07:31:28;9.55;;;5.57;;
58091;SDS011;43896;48.178;11.578;2023-05-19T07:33:55;11.27;;;5.63;;
58091;SDS011;43896;48.178;11.578;2023-05-19T07:36:20;8.32;;;5.30;;
58091;SDS011;43896;48.178;11.578;2023-05-19T07:38:46;10.35;;;5.30;;
58091;SDS011;43896;48.178;11.578;2023-05-19T07:41:11;10.15;;;5.35;;
58091;SDS011;43896;48.178;11.578;2023-05-19T07:43:37;10.90;;;5.75;;
58091;SDS011;43896;48.178;11.578;2023-05-19T07:46:02;10.25;;;5.60;;
58091;SDS011;43896;48.178;11.578;2023-05-19T07:48:28;10.05;;;5.50;;
58091;SDS011;43896;48.178;11.578;2023-05-19T07:50:53;10.73;;;5.78;;
58091;SDS011;43896;48.178;11.578;2023-05-19T07:53:19;9.07;;;5.50;;
58091;SDS011;43896;48.178;11.578;2023-05-19T07:55:46;10.52;;;5.47;;
58091;SDS011;43896;48.178;11.578;2023-05-19T07:58:11;8.73;;;5.28;;
58091;SDS011;43896;48.178;11.578;2023-05-19T08:00:37;9.02;;;5.40;;
58091;SDS011;43896;48.178;11.578;2023-05-19T08:03:02;10.00;;;5.40;;
58091;SDS011;43896;48.178;11.578;2023-05-19T08:05:28;8.52;;;5.30;;
58091;SDS011;43896;48.178;11.578;2023-05-19T08:07:54;10.05;;;5.07;;
58091;SDS011;43896;48.178;11.578;2023-05-19T08:10:20;10.88;;;5.78;;
58091;SDS011;43896;48.178;11.578;2023-05-19T08:12:45;10.63;;;5.22;;
58091;SDS011;43896;48.178;11.578;2023-05-19T08:15:11;8.70;;;5.13;;
58091;SDS011;43896;48.178;11.578;2023-05-19T08:17:36;11.07;;;6.13;;
58091;SDS011;43896;48.178;11.578;2023-05-19T08:20:02;8.65;;;5.85;;
58091;SDS011;43896;48.178;11.578;2023-05-19T08:22:30;10.85;;;5.90;;
58091;SDS011;43896;48.178;11.578;2023-05-19T08:24:55;10.65;;;5.82;;
58091;SDS011;43896;48.178;11.578;2023-05-19T08:27:21;9.93;;;5.38;;
58091;SDS011;43896;48.178;11.578;2023-05-19T08:29:46;13.55;;;5.80;;
58091;SDS011;43896;48.178;11.578;2023-05-19T08:32:12;11.30;;;5.40;;
58091;SDS011;43896;48.178;11.578;2023-05-19T08:34:37;8.77;;;5.13;;
58091;SDS011;43896;48.178;11.578;2023-05-19T08:37:02;10.50;;;5.72;;
58091;SDS011;43896;48.178;11.578;2023-05-19T08:39:28;8.85;;;5.45;;
58091;SDS011;43896;48.178;11.578;2023-05-19T08:41:53;8.65;;;4.90;;
58091;SDS011;43896;48.178;11.578;2023-05-19T08:44:19;8.05;;;5.03;;
58091;SDS011;43896;48.178;11.578;2023-05-19T08:46:45;9.43;;;5.18;;
58091;SDS011;43896;48.178;11.578;2023-05-19T08:49:12;8.10;;;5.10;;
58091;SDS011;43896;48.178;11.578;2023-05-19T08:54:18;8.13;;;5.00;;
58091;SDS011;43896;48.178;11.578;2023-05-19T08:56:49;8.82;;;5.40;;
58091;SDS011;43896;48.178;11.578;2023-05-19T08:59:15;8.18;;;5.40;;
58091;SDS011;43896;48.178;11.578;2023-05-19T09:01:43;9.63;;;5.30;;
58091;SDS011;43896;48.178;11.578;2023-05-19T09:04:09;8.30;;;5.28;;
58091;SDS011;43896;48.178;11.578;2023-05-19T09:06:35;10.18;;;5.28;;
58091;SDS011;43896;48.178;11.578;2023-05-19T09:09:01;10.43;;;5.38;;
58091;SDS011;43896;48.178;11.578;2023-05-19T09:11:28;9.82;;;5.65;;
58091;SDS011;43896;48.178;11.578;2023-05-19T09:13:53;11.07;;;5.68;;
58091;SDS011;43896;48.178;11.578;2023-05-19T09:16:23;8.20;;;5.53;;
58091;SDS011;43896;48.178;11.578;2023-05-19T09:21:30;9.75;;;5.45;;
58091;SDS011;43896;48.178;11.578;2023-05-19T09:23:57;11.63;;;5.95;;
58091;SDS011;43896;48.178;11.578;2023-05-19T09:26:37;8.32;;;5.38;;
58091;SDS011;43896;48.178;11.578;2023-05-19T09:29:15;9.60;;;5.47;;
58091;SDS011;43896;48.178;11.578;2023-05-19T09:31:59;9.00;;;5.82;;
58091;SDS011;43896;48.178;11.578;2023-05-19T09:34:28;8.75;;;5.22;;
58091;SDS011;43896;48.178;11.578;2023-05-19T09:36:53;9.48;;;5.90;;
58091;SDS011;43896;48.178;11.578;2023-05-19T09:39:20;9.10;;;5.65;;
58091;SDS011;43896;48.178;11.578;2023-05-19T09:44:21;8.57;;;5.27;;
58091;SDS011;43896;48.178;11.578;2023-05-19T09:46:51;8.73;;;5.28;;
58091;SDS011;43896;48.178;11.578;2023-05-19T09:49:24;9.02;;;5.18;;
58091;SDS011;43896;48.178;11.578;2023-05-19T09:51:55;8.23;;;5.47;;
58091;SDS011;43896;48.178;11.578;2023-05-19T09:54:21;9.68;;;5.50;;
58091;SDS011;43896;48.178;11.578;2023-05-19T09:56:55;9.95;;;5.30;;
58091;SDS011;43896;48.178;11.578;2023-05-19T09:59:22;8.32;;;5.03;;
58091;SDS011;43896;48.178;11.578;2023-05-19T10:01:49;9.65;;;5.80;;
58091;SDS011;43896;48.178;11.578;2023-05-19T10:04:20;9.32;;;5.95;;
58091;SDS011;43896;48.178;11.578;2023-05-19T10:06:46;8.23;;;5.40;;
58091;SDS011;43896;48.178;11.578;2023-05-19T10:09:21;9.02;;;5.63;;
58091;SDS011;43896;48.178;11.578;2023-05-19T10:11:50;10.25;;;6.18;;
58091;SDS011;43896;48.178;11.578;2023-05-19T10:14:16;10.90;;;5.95;;
58091;SDS011;43896;48.178;11.578;2023-05-19T10:16:45;11.18;;;6.22;;
58091;SDS011;43896;48.178;11.578;2023-05-19T10:19:14;10.43;;;6.50;;
58091;SDS011;43896;48.178;11.578;2023-05-19T10:21:40;10.00;;;6.00;;
58091;SDS011;43896;48.178;11.578;2023-05-19T10:24:06;17.30;;;6.38;;
58091;SDS011;43896;48.178;11.578;2023-05-19T10:26:31;23.95;;;6.78;;
58091;SDS011;43896;48.178;11.578;2023-05-19T10:28:58;24.88;;;6.78;;
58091;SDS011;43896;48.178;11.578;2023-05-19T10:31:25;9.38;;;5.95;;
58091;SDS011;43896;48.178;11.578;2023-05-19T10:36:48;9.88;;;6.47;;
58091;SDS011;43896;48.178;11.578;2023-05-19T10:39:27;10.68;;;6.47;;
58091;SDS011;43896;48.178;11.578;2023-05-19T10:42:15;11.77;;;7.10;;
58091;SDS011;43896;48.178;11.578;2023-05-19T10:45:01;10.18;;;7.05;;
58091;SDS011;43896;48.178;11.578;2023-05-19T10:50:00;9.85;;;6.55;;
58091;SDS011;43896;48.178;11.578;2023-05-19T10:52:26;10.98;;;6.78;;
58091;SDS011;43896;48.178;11.578;2023-05-19T10:54:54;9.88;;;6.35;;
58091;SDS011;43896;48.178;11.578;2023-05-19T10:57:36;10.77;;;6.55;;
58091;SDS011;43896;48.178;11.578;2023-05-19T11:00:02;10.98;;;6.80;;
58091;SDS011;43896;48.178;11.578;2023-05-19T11:02:38;10.98;;;6.45;;
58091;SDS011;43896;48.178;11.578;2023-05-19T11:05:14;10.40;;;7.00;;
58091;SDS011;43896;48.178;11.578;2023-05-19T11:07:42;11.57;;;6.90;;
58091;SDS011;43896;48.178;11.578;2023-05-19T11:10:08;10.73;;;6.82;;
58091;SDS011;43896;48.178;11.578;2023-05-19T11:12:41;11.38;;;7.30;;
58091;SDS011;43896;48.178;11.578;2023-05-19T11:15:10;11.45;;;6.95;;
58091;SDS011;43896;48.178;11.578;2023-05-19T11:17:38;11.23;;;7.38;;
58091;SDS011;43896;48.178;11.578;2023-05-19T11:20:06;9.50;;;7.05;;
58091;SDS011;43896;48.178;11.578;2023-05-19T11:22:33;10.02;;;7.43;;
58091;SDS011;43896;48.178;11.578;2023-05-19T11:25:00;11.35;;;7.03;;
58091;SDS011;43896;48.178;11.578;2023-05-19T11:29:52;10.85;;;7.13;;
58091;SDS011;43896;48.178;11.578;2023-05-19T11:32:35;9.93;;;7.13;;
58091;SDS011;43896;48.178;11.578;2023-05-19T11:35:05;10.73;;;7.07;;
58091;SDS011;43896;48.178;11.578;2023-05-19T11:37:32;10.57;;;7.03;;
58091;SDS011;43896;48.178;11.578;2023-05-19T11:40:00;11.27;;;7.53;;
58091;SDS011;43896;48.178;11.578;2023-05-19T11:42:26;13.88;;;7.85;;
58091;SDS011;43896;48.178;11.578;2023-05-19T11:44:53;10.88;;;6.90;;
58091;SDS011;43896;48.178;11.578;2023-05-19T11:47:19;11.02;;;7.50;;
58091;SDS011;43896;48.178;11.578;2023-05-19T11:49:49;11.27;;;7.63;;
58091;SDS011;43896;48.178;11.578;2023-05-19T11:52:15;11.18;;;7.80;;
58091;SDS011;43896;48.178;11.578;2023-05-19T11:54:41;10.88;;;7.32;;
58091;SDS011;43896;48.178;11.578;2023-05-19T11:57:07;9.52;;;7.00;;
58091;SDS011;43896;48.178;11.578;2023-05-19T11:59:35;10.95;;;7.60;;
58091;SDS011;43896;48.178;11.578;2023-05-19T12:02:14;11.25;;;7.43;;
58091;SDS011;43896;48.178;11.578;2023-05-19T12:04:41;12.17;;;7.50;;
58091;SDS011;43896;48.178;11.578;2023-05-19T12:07:07;10.05;;;6.78;;
58091;SDS011;43896;48.178;11.578;2023-05-19T12:09:32;10.75;;;7.25;;
58091;SDS011;43896;48.178;11.578;2023-05-19T12:11:58;9.10;;;6.90;;
58091;SDS011;43896;48.178;11.578;2023-05-19T12:14:25;12.05;;;7.43;;
58091;SDS011;43896;48.178;11.578;2023-05-19T12:16:51;13.27;;;8.45;;
58091;SDS011;43896;48.178;11.578;2023-05-19T12:19:16;10.30;;;7.38;;
58091;SDS011;43896;48.178;11.578;2023-05-19T12:21:41;13.45;;;8.27;;
58091;SDS011;43896;48.178;11.578;2023-05-19T12:24:07;12.60;;;8.00;;
58091;SDS011;43896;48.178;11.578;2023-05-19T12:26:34;11.82;;;8.10;;
58091;SDS011;43896;48.178;11.578;2023-05-19T12:29:00;12.82;;;8.07;;
58091;SDS011;43896;48.178;11.578;2023-05-19T12:31:25;12.98;;;8.15;;
58091;SDS011;43896;48.178;11.578;2023-05-19T12:33:51;9.38;;;7.07;;
58091;SDS011;43896;48.178;11.578;2023-05-19T12:36:16;11.20;;;8.13;;
58091;SDS011;43896;48.178;11.578;2023-05-19T12:38:42;11.77;;;7.50;;
58091;SDS011;43896;48.178;11.578;2023-05-19T12:41:10;10.60;;;7.57;;
58091;SDS011;43896;48.178;11.578;2023-05-19T12:43:39;10.73;;;7.55;;
58091;SDS011;43896;48.178;11.578;2023-05-19T12:46:11;11.52;;;7.45;;
58091;SDS011;43896;48.178;11.578;2023-05-19T12:48:41;11.38;;;7.65;;
58091;SDS011;43896;48.178;11.578;2023-05-19T12:51:08;13.02;;;7.40;;
58091;SDS011;43896;48.178;11.578;2023-05-19T12:53:33;11.70;;;7.70;;
58091;SDS011;43896;48.178;11.578;2023-05-19T12:55:59;11.82;;;7.68;;
58091;SDS011;43896;48.178;11.578;2023-05-19T12:58:24;10.60;;;7.60;;
58091;SDS011;43896;48.178;11.578;2023-05-19T13:00:50;10.90;;;8.10;;
58091;SDS011;43896;48.178;11.578;2023-05-19T13:03:23;11.52;;;7.88;;
58091;SDS011;43896;48.178;11.578;2023-05-19T13:05:49;11.05;;;7.32;;
58091;SDS011;43896;48.178;11.578;2023-05-19T13:08:16;10.23;;;7.60;;
58091;SDS011;43896;48.178;11.578;2023-05-19T13:10:45;9.73;;;7.28;;
58091;SDS011;43896;48.178;11.578;2023-05-19T13:13:13;10.35;;;7.03;;
58091;SDS011;43896;48.178;11.578;2023-05-19T13:15:42;9.57;;;7.15;;
58091;SDS011;43896;48.178;11.578;2023-05-19T13:18:09;10.73;;;7.57;;
58091;SDS011;43896;48.178;11.578;2023-05-19T13:20:37;12.57;;;7.55;;
58091;SDS011;43896;48.178;11.578;2023-05-19T13:23:03;10.25;;;7.65;;
58091;SDS011;43896;48.178;11.578;2023-05-19T13:25:30;11.38;;;7.50;;
58091;SDS011;43896;48.178;11.578;2023-05-19T13:27:58;10.23;;;7.73;;
58091;SDS011;43896;48.178;11.578;2023-05-19T13:30:27;10.70;;;7.88;;
58091;SDS011;43896;48.178;11.578;2023-05-19T13:32:53;11.63;;;7.65;;
58091;SDS011;43896;48.178;11.578;2023-05-19T13:35:18;12.45;;;8.25;;
58091;SDS011;43896;48.178;11.578;2023-05-19T13:37:44;11.15;;;7.60;;
58091;SDS011;43896;48.178;11.578;2023-05-19T13:40:12;11.55;;;7.75;;
58091;SDS011;43896;48.178;11.578;2023-05-19T13:42:38;11.65;;;8.02;;
58091;SDS011;43896;48.178;11.578;2023-05-19T13:48:49;10.50;;;8.02;;
58091;SDS011;43896;48.178;11.578;2023-05-19T13:51:14;11.13;;;8.20;;
58091;SDS011;43896;48.178;11.578;2023-05-19T13:53:45;11.10;;;7.57;;
58091;SDS011;43896;48.178;11.578;2023-05-19T13:56:13;11.68;;;7.25;;
58091;SDS011;43896;48.178;11.578;2023-05-19T14:02:25;10.60;;;7.68;;
58091;SDS011;43896;48.178;11.578;2023-05-19T14:05:16;9.65;;;7.40;;
58091;SDS011;43896;48.178;11.578;2023-05-19T14:07:47;9.73;;;7.03;;
58091;SDS011;43896;48.178;11.578;2023-05-19T14:13:24;10.68;;;7.78;;
58091;SDS011;43896;48.178;11.578;2023-05-19T14:18:57;9.65;;;7.00;;
58091;SDS011;43896;48.178;11.578;2023-05-19T14:21:25;10.95;;;7.72;;
58091;SDS011;43896;48.178;11.578;2023-05-19T14:23:59;10.65;;;7.35;;
58091;SDS011;43896;48.178;11.578;2023-05-19T14:26:36;10.68;;;7.05;;
58091;SDS011;43896;48.178;11.578;2023-05-19T14:29:22;10.85;;;7.20;;
58091;SDS011;43896;48.178;11.578;2023-05-19T14:31:57;10.25;;;7.10;;
58091;SDS011;43896;48.178;11.578;2023-05-19T14:34:46;9.38;;;6.65;;
58091;SDS011;43896;48.178;11.578;2023-05-19T14:37:17;8.20;;;6.32;;
58091;SDS011;43896;48.178;11.578;2023-05-19T14:39:52;9.98;;;7.00;;
58091;SDS011;43896;48.178;11.578;2023-05-19T14:42:21;9.30;;;7.00;;
58091;SDS011;43896;48.178;11.578;2023-05-19T14:44:52;10.30;;;7.10;;
58091;SDS011;43896;48.178;11.578;2023-05-19T14:47:29;10.55;;;6.70;;
58091;SDS011;43896;48.178;11.578;2023-05-19T14:49:58;9.90;;;6.90;;
58091;SDS011;43896;48.178;11.578;2023-05-19T14:52:28;9.23;;;6.65;;
58091;SDS011;43896;48.178;11.578;2023-05-19T14:55:03;9.10;;;6.40;;
58091;SDS011;43896;48.178;11.578;2023-05-19T14:58:21;9.35;;;6.28;;
58091;SDS011;43896;48.178;11.578;2023-05-19T15:00:52;9.93;;;6.90;;
58091;SDS011;43896;48.178;11.578;2023-05-19T15:03:17;8.70;;;6.40;;
58091;SDS011;43896;48.178;11.578;2023-05-19T15:05:43;11.10;;;6.35;;
58091;SDS011;43896;48.178;11.578;2023-05-19T15:08:09;10.27;;;6.32;;
58091;SDS011;43896;48.178;11.578;2023-05-19T15:10:34;10.30;;;6.65;;
58091;SDS011;43896;48.178;11.578;2023-05-19T15:13:00;10.07;;;6.85;;
58091;SDS011;43896;48.178;11.578;2023-05-19T15:15:25;9.30;;;6.32;;
58091;SDS011;43896;48.178;11.578;2023-05-19T15:17:51;10.82;;;6.60;;
58091;SDS011;43896;48.178;11.578;2023-05-19T15:20:16;9.45;;;6.20;;